sensor_id;sensor_type;location;lat;lon;timestamp;pressure;altitude;pressure_sealevel;temperature;humidity
8641;BME280;4358;42.100;25.222;2023-04-07T00:00:53;99904.13;;;7.14;66.59
8641;BME280;4358;42.100;25.222;2023-04-07T00:03:19;99905.84;;;7.15;66.61
8641;BME280;4358;42.100;25.222;2023-04-07T00:05:47;99899.78;;;7.13;66.45
8641;BME280;4358;42.100;25.222;2023-04-07T00:08:14;99892.19;;;7.07;67.48
8641;BME280;4358;42.100;25.222;2023-04-07T00:10:43;99906.69;;;7.15;67.79
8641;BME280;4358;42.100;25.222;2023-04-07T00:13:10;99912.13;;;7.12;68.22
8641;BME280;4358;42.100;25.222;2023-04-07T00:15:36;99904.31;;;7.11;67.33
8641;BME280;4358;42.100;25.222;2023-04-07T00:18:03;99904.44;;;7.08;67.80
8641;BME280;4358;42.100;25.222;2023-04-07T00:20:30;99912.38;;;7.08;67.14
8641;BME280;4358;42.100;25.222;2023-04-07T00:22:57;99908.81;;;7.09;67.64
8641;BME280;4358;42.100;25.222;2023-04-07T00:25:24;99906.00;;;7.12;67.87
8641;BME280;4358;42.100;25.222;2023-04-07T00:27:52;99900.72;;;7.12;68.24
8641;BME280;4358;42.100;25.222;2023-04-07T00:30:19;99900.56;;;7.15;68.51
8641;BME280;4358;42.100;25.222;2023-04-07T00:32:46;99901.56;;;7.12;69.03
8641;BME280;4358;42.100;25.222;2023-04-07T00:35:12;99901.50;;;7.14;69.38
8641;BME280;4358;42.100;25.222;2023-04-07T00:37:39;99900.72;;;7.12;69.81
8641;BME280;4358;42.100;25.222;2023-04-07T00:40:07;99905.06;;;7.13;70.38
8641;BME280;4358;42.100;25.222;2023-04-07T00:42:34;99906.16;;;7.09;71.40
8641;BME280;4358;42.100;25.222;2023-04-07T00:45:03;99904.56;;;7.06;71.05
8641;BME280;4358;42.100;25.222;2023-04-07T00:47:30;99913.28;;;7.07;70.30
8641;BME280;4358;42.100;25.222;2023-04-07T00:49:56;99915.25;;;7.03;69.51
8641;BME280;4358;42.100;25.222;2023-04-07T00:52:23;99911.63;;;7.06;69.58
8641;BME280;4358;42.100;25.222;2023-04-07T00:54:54;99910.84;;;7.04;70.05
8641;BME280;4358;42.100;25.222;2023-04-07T00:57:21;99906.47;;;7.03;70.64
8641;BME280;4358;42.100;25.222;2023-04-07T00:59:50;99910.75;;;7.05;70.33
8641;BME280;4358;42.100;25.222;2023-04-07T01:02:22;99909.91;;;7.05;71.14
8641;BME280;4358;42.100;25.222;2023-04-07T01:04:57;99909.03;;;7.04;70.49
8641;BME280;4358;42.100;25.222;2023-04-07T01:07:29;99906.78;;;6.97;70.78
8641;BME280;4358;42.100;25.222;2023-04-07T01:10:02;99901.53;;;6.97;70.75
8641;BME280;4358;42.100;25.222;2023-04-07T01:12:36;99905.88;;;6.98;71.56
8641;BME280;4358;42.100;25.222;2023-04-07T01:15:08;99908.50;;;6.98;71.47
8641;BME280;4358;42.100;25.222;2023-04-07T01:17:38;99908.50;;;6.98;70.89
8641;BME280;4358;42.100;25.222;2023-04-07T01:20:11;99905.78;;;6.99;70.70
8641;BME280;4358;42.100;25.222;2023-04-07T01:22:42;99898.28;;;6.92;70.86
8641;BME280;4358;42.100;25.222;2023-04-07T01:25:28;99913.72;;;6.99;70.58
8641;BME280;4358;42.100;25.222;2023-04-07T01:28:13;99906.47;;;7.03;69.34
8641;BME280;4358;42.100;25.222;2023-04-07T01:30:43;99911.75;;;7.03;70.38
8641;BME280;4358;42.100;25.222;2023-04-07T01:33:11;99903.09;;;7.01;70.65
8641;BME280;4358;42.100;25.222;2023-04-07T01:35:40;99906.97;;;6.94;70.29
8641;BME280;4358;42.100;25.222;2023-04-07T01:38:08;99909.44;;;6.97;69.83
8641;BME280;4358;42.100;25.222;2023-04-07T01:40:38;99913.97;;;6.95;69.27
8641;BME280;4358;42.100;25.222;2023-04-07T01:43:05;99913.78;;;6.98;69.06
8641;BME280;4358;42.100;25.222;2023-04-07T01:45:34;99911.00;;;7.01;68.91
8641;BME280;4358;42.100;25.222;2023-04-07T01:48:04;99904.09;;;6.98;67.59
8641;BME280;4358;42.100;25.222;2023-04-07T01:50:32;99910.22;;;6.99;67.32
8641;BME280;4358;42.100;25.222;2023-04-07T01:52:59;99911.75;;;7.03;67.64
8641;BME280;4358;42.100;25.222;2023-04-07T01:55:27;99907.66;;;6.97;67.06
8641;BME280;4358;42.100;25.222;2023-04-07T01:57:54;99910.53;;;6.93;67.11
8641;BME280;4358;42.100;25.222;2023-04-07T02:00:21;99894.25;;;6.85;67.07
8641;BME280;4358;42.100;25.222;2023-04-07T02:02:51;99910.53;;;6.93;65.71
8641;BME280;4358;42.100;25.222;2023-04-07T02:05:22;99916.13;;;6.87;66.50
8641;BME280;4358;42.100;25.222;2023-04-07T02:07:53;99904.81;;;6.85;66.61
8641;BME280;4358;42.100;25.222;2023-04-07T02:10:23;99910.16;;;6.83;66.79
8641;BME280;4358;42.100;25.222;2023-04-07T02:12:51;99916.28;;;6.84;67.03
8641;BME280;4358;42.100;25.222;2023-04-07T02:15:18;99910.84;;;6.87;66.46
8641;BME280;4358;42.100;25.222;2023-04-07T02:17:49;99907.28;;;6.88;66.39
8641;BME280;4358;42.100;25.222;2023-04-07T02:20:19;99910.72;;;6.90;67.06
8641;BME280;4358;42.100;25.222;2023-04-07T02:22:48;99904.03;;;6.82;66.18
8641;BME280;4358;42.100;25.222;2023-04-07T02:25:22;99912.72;;;6.85;66.37
8641;BME280;4358;42.100;25.222;2023-04-07T02:27:50;99911.94;;;6.82;66.99
8641;BME280;4358;42.100;25.222;2023-04-07T02:30:17;99898.75;;;6.82;67.36
8641;BME280;4358;42.100;25.222;2023-04-07T02:32:44;99909.31;;;6.82;67.63
8641;BME280;4358;42.100;25.222;2023-04-07T02:35:11;99904.19;;;6.79;67.33
8641;BME280;4358;42.100;25.222;2023-04-07T02:37:38;99902.63;;;6.75;67.93
8641;BME280;4358;42.100;25.222;2023-04-07T02:40:07;99888.69;;;6.73;67.33
8641;BME280;4358;42.100;25.222;2023-04-07T02:42:35;99911.03;;;6.66;67.00
8641;BME280;4358;42.100;25.222;2023-04-07T02:45:02;99915.53;;;6.64;67.37
8641;BME280;4358;42.100;25.222;2023-04-07T02:47:29;99918.78;;;6.69;67.40
8641;BME280;4358;42.100;25.222;2023-04-07T02:49:55;99916.28;;;6.66;67.80
8641;BME280;4358;42.100;25.222;2023-04-07T02:52:22;99917.31;;;6.64;66.97
8641;BME280;4358;42.100;25.222;2023-04-07T02:54:49;99916.22;;;6.68;67.30
8641;BME280;4358;42.100;25.222;2023-04-07T02:57:18;99919.22;;;6.60;67.57
8641;BME280;4358;42.100;25.222;2023-04-07T02:59:45;99921.97;;;6.59;68.31
8641;BME280;4358;42.100;25.222;2023-04-07T03:02:12;99892.31;;;6.36;68.68
8641;BME280;4358;42.100;25.222;2023-04-07T03:04:38;99923.81;;;6.57;68.16
8641;BME280;4358;42.100;25.222;2023-04-07T03:07:06;99911.31;;;6.60;67.94
8641;BME280;4358;42.100;25.222;2023-04-07T03:09:33;99917.75;;;6.55;68.18
8641;BME280;4358;42.100;25.222;2023-04-07T03:12:00;99917.84;;;6.53;68.70
8641;BME280;4358;42.100;25.222;2023-04-07T03:14:29;99928.72;;;6.47;68.36
8641;BME280;4358;42.100;25.222;2023-04-07T03:16:55;99926.91;;;6.48;68.19
8641;BME280;4358;42.100;25.222;2023-04-07T03:19:22;99929.63;;;6.46;68.15
8641;BME280;4358;42.100;25.222;2023-04-07T03:21:49;99934.03;;;6.46;67.02
8641;BME280;4358;42.100;25.222;2023-04-07T03:24:16;99935.81;;;6.45;67.74
8641;BME280;4358;42.100;25.222;2023-04-07T03:26:43;99932.44;;;6.43;67.33
8641;BME280;4358;42.100;25.222;2023-04-07T03:29:10;99932.31;;;6.45;67.51
8641;BME280;4358;42.100;25.222;2023-04-07T03:31:38;99931.34;;;6.47;67.58
8641;BME280;4358;42.100;25.222;2023-04-07T03:34:05;99939.25;;;6.47;67.73
8641;BME280;4358;42.100;25.222;2023-04-07T03:36:31;99934.34;;;6.39;68.16
8641;BME280;4358;42.100;25.222;2023-04-07T03:38:58;99942.00;;;6.44;67.94
8641;BME280;4358;42.100;25.222;2023-04-07T03:41:25;99939.09;;;6.50;66.53
8641;BME280;4358;42.100;25.222;2023-04-07T03:43:52;99950.41;;;6.52;67.30
8641;BME280;4358;42.100;25.222;2023-04-07T03:46:19;99947.63;;;6.55;67.76
8641;BME280;4358;42.100;25.222;2023-04-07T03:48:48;99944.97;;;6.55;67.02
8641;BME280;4358;42.100;25.222;2023-04-07T03:51:15;99948.72;;;6.51;68.16
8641;BME280;4358;42.100;25.222;2023-04-07T03:53:42;99961.88;;;6.51;68.19
8641;BME280;4358;42.100;25.222;2023-04-07T03:56:09;99955.69;;;6.52;68.43
8641;BME280;4358;42.100;25.222;2023-04-07T03:58:36;99962.59;;;6.55;67.58
8641;BME280;4358;42.100;25.222;2023-04-07T04:01:07;99962.06;;;6.48;68.23
8641;BME280;4358;42.100;25.222;2023-04-07T04:03:34;99960.03;;;6.53;68.83
8641;BME280;4358;42.100;25.222;2023-04-07T04:06:02;99967.47;;;6.45;69.31
8641;BME280;4358;42.100;25.222;2023-04-07T04:08:29;99960.94;;;6.35;69.54
8641;BME280;4358;42.100;25.222;2023-04-07T04:10:56;99962.88;;;6.31;69.98
8641;BME280;4358;42.100;25.222;2023-04-07T04:13:23;99970.25;;;6.42;70.37
8641;BME280;4358;42.100;25.222;2023-04-07T04:15:50;99970.88;;;6.47;70.76
8641;BME280;4358;42.100;25.222;2023-04-07T04:18:16;99970.44;;;6.56;69.37
8641;BME280;4358;42.100;25.222;2023-04-07T04:20:43;99973.06;;;6.56;68.79
8641;BME280;4358;42.100;25.222;2023-04-07T04:23:11;99975.69;;;6.56;68.48
8641;BME280;4358;42.100;25.222;2023-04-07T04:25:38;99977.19;;;6.62;68.58
8641;BME280;4358;42.100;25.222;2023-04-07T04:28:05;99982.22;;;6.66;69.16
8641;BME280;4358;42.100;25.222;2023-04-07T04:30:32;99985.56;;;6.70;68.47
8641;BME280;4358;42.100;25.222;2023-04-07T04:33:01;99983.78;;;6.70;68.85
8641;BME280;4358;42.100;25.222;2023-04-07T04:35:28;99990.63;;;6.74;69.75
8641;BME280;4358;42.100;25.222;2023-04-07T04:37:55;99988.34;;;6.67;71.17
8641;BME280;4358;42.100;25.222;2023-04-07T04:40:23;99984.94;;;6.65;71.86
8641;BME280;4358;42.100;25.222;2023-04-07T04:42:50;99991.06;;;6.65;72.08
8641;BME280;4358;42.100;25.222;2023-04-07T04:45:17;99998.97;;;6.65;71.97
8641;BME280;4358;42.100;25.222;2023-04-07T04:47:44;99996.19;;;6.68;71.90
8641;BME280;4358;42.100;25.222;2023-04-07T04:50:10;99999.28;;;6.76;71.24
8641;BME280;4358;42.100;25.222;2023-04-07T04:52:37;99994.75;;;6.80;71.94
8641;BME280;4358;42.100;25.222;2023-04-07T04:55:06;100002.13;;;6.91;71.44
8641;BME280;4358;42.100;25.222;2023-04-07T04:57:34;99998.47;;;6.93;71.81
8641;BME280;4358;42.100;25.222;2023-04-07T05:00:01;99998.38;;;6.95;72.52
8641;BME280;4358;42.100;25.222;2023-04-07T05:02:28;100001.78;;;6.97;73.32
8641;BME280;4358;42.100;25.222;2023-04-07T05:04:55;100007.84;;;6.99;73.54
8641;BME280;4358;42.100;25.222;2023-04-07T05:07:22;100009.03;;;7.10;74.11
8641;BME280;4358;42.100;25.222;2023-04-07T05:09:49;100012.81;;;7.05;74.15
8641;BME280;4358;42.100;25.222;2023-04-07T05:12:16;100012.66;;;7.08;75.04
8641;BME280;4358;42.100;25.222;2023-04-07T05:14:44;100010.50;;;7.16;74.72
8641;BME280;4358;42.100;25.222;2023-04-07T05:17:11;100013.81;;;7.19;73.94
8641;BME280;4358;42.100;25.222;2023-04-07T05:19:37;100019.16;;;7.18;72.94
8641;BME280;4358;42.100;25.222;2023-04-07T05:22:04;100020.75;;;7.22;71.93
8641;BME280;4358;42.100;25.222;2023-04-07T05:24:31;100012.59;;;7.09;71.14
8641;BME280;4358;42.100;25.222;2023-04-07T05:26:58;100020.75;;;7.22;69.80
8641;BME280;4358;42.100;25.222;2023-04-07T05:29:26;100018.78;;;7.26;69.74
8641;BME280;4358;42.100;25.222;2023-04-07T05:31:54;100020.66;;;7.23;68.76
8641;BME280;4358;42.100;25.222;2023-04-07T05:34:21;100025.06;;;7.23;69.29
8641;BME280;4358;42.100;25.222;2023-04-07T05:36:48;100033.09;;;7.21;67.81
8641;BME280;4358;42.100;25.222;2023-04-07T05:39:15;100033.28;;;7.34;67.52
8641;BME280;4358;42.100;25.222;2023-04-07T05:41:42;100030.16;;;7.43;67.63
8641;BME280;4358;42.100;25.222;2023-04-07T05:44:09;100026.34;;;7.49;67.06
8641;BME280;4358;42.100;25.222;2023-04-07T05:46:35;100032.34;;;7.52;66.98
8641;BME280;4358;42.100;25.222;2023-04-07T05:49:04;100031.41;;;7.53;67.23
8641;BME280;4358;42.100;25.222;2023-04-07T05:51:31;100029.38;;;7.58;68.53
8641;BME280;4358;42.100;25.222;2023-04-07T05:54:00;100038.34;;;7.72;68.08
8641;BME280;4358;42.100;25.222;2023-04-07T05:56:28;100033.69;;;7.77;68.04
8641;BME280;4358;42.100;25.222;2023-04-07T05:58:55;100024.75;;;7.79;68.82
8641;BME280;4358;42.100;25.222;2023-04-07T06:01:23;100037.41;;;7.90;69.09
8641;BME280;4358;42.100;25.222;2023-04-07T06:03:50;100031.94;;;7.93;68.62
8641;BME280;4358;42.100;25.222;2023-04-07T06:06:18;100038.59;;;8.00;69.39
8641;BME280;4358;42.100;25.222;2023-04-07T06:08:45;100039.09;;;8.06;69.25
8641;BME280;4358;42.100;25.222;2023-04-07T06:11:12;100038.09;;;8.09;68.38
8641;BME280;4358;42.100;25.222;2023-04-07T06:13:39;100038.25;;;8.06;67.54
8641;BME280;4358;42.100;25.222;2023-04-07T06:16:06;100037.75;;;8.15;65.59
8641;BME280;4358;42.100;25.222;2023-04-07T06:18:33;100041.16;;;8.17;63.75
8641;BME280;4358;42.100;25.222;2023-04-07T06:21:00;100045.34;;;8.21;63.77
8641;BME280;4358;42.100;25.222;2023-04-07T06:23:28;100040.66;;;8.26;62.10
8641;BME280;4358;42.100;25.222;2023-04-07T06:25:55;100053.03;;;8.26;62.26
8641;BME280;4358;42.100;25.222;2023-04-07T06:28:22;100047.84;;;8.40;62.47
8641;BME280;4358;42.100;25.222;2023-04-07T06:30:49;100044.09;;;8.44;63.11
8641;BME280;4358;42.100;25.222;2023-04-07T06:33:16;100049.50;;;8.42;59.80
8641;BME280;4358;42.100;25.222;2023-04-07T06:35:43;100048.03;;;8.53;57.63
8641;BME280;4358;42.100;25.222;2023-04-07T06:38:10;100048.03;;;8.53;56.65
8641;BME280;4358;42.100;25.222;2023-04-07T06:40:38;100060.47;;;8.50;57.23
8641;BME280;4358;42.100;25.222;2023-04-07T06:43:05;100054.06;;;8.55;57.45
8641;BME280;4358;42.100;25.222;2023-04-07T06:45:32;100066.78;;;8.64;56.13
8641;BME280;4358;42.100;25.222;2023-04-07T06:47:59;100064.06;;;8.65;57.68
8641;BME280;4358;42.100;25.222;2023-04-07T06:50:26;100072.94;;;8.64;56.58
8641;BME280;4358;42.100;25.222;2023-04-07T06:52:52;100054.50;;;8.78;57.80
8641;BME280;4358;42.100;25.222;2023-04-07T06:55:19;100072.16;;;8.78;57.26
8641;BME280;4358;42.100;25.222;2023-04-07T06:57:47;100081.78;;;8.95;57.48
8641;BME280;4358;42.100;25.222;2023-04-07T07:00:17;100082.72;;;8.93;56.90
8641;BME280;4358;42.100;25.222;2023-04-07T07:02:44;100076.66;;;8.91;54.94
8641;BME280;4358;42.100;25.222;2023-04-07T07:05:12;100085.19;;;8.97;55.56
8641;BME280;4358;42.100;25.222;2023-04-07T07:07:39;100090.66;;;9.09;53.82
8641;BME280;4358;42.100;25.222;2023-04-07T07:10:08;100085.50;;;9.06;54.39
8641;BME280;4358;42.100;25.222;2023-04-07T07:12:35;100095.09;;;9.09;53.84
8641;BME280;4358;42.100;25.222;2023-04-07T07:15:04;100095.59;;;9.15;54.61
8641;BME280;4358;42.100;25.222;2023-04-07T07:17:31;100095.19;;;9.21;53.54
8641;BME280;4358;42.100;25.222;2023-04-07T07:19:58;100097.09;;;9.19;52.54
8641;BME280;4358;42.100;25.222;2023-04-07T07:22:25;100109.41;;;9.20;52.61
8641;BME280;4358;42.100;25.222;2023-04-07T07:24:52;100103.25;;;9.20;52.01
8641;BME280;4358;42.100;25.222;2023-04-07T07:27:19;100110.09;;;9.24;52.95
8641;BME280;4358;42.100;25.222;2023-04-07T07:29:46;100114.16;;;9.29;53.63
8641;BME280;4358;42.100;25.222;2023-04-07T07:32:14;100111.91;;;9.38;52.06
8641;BME280;4358;42.100;25.222;2023-04-07T07:34:41;100098.59;;;9.39;52.65
8641;BME280;4358;42.100;25.222;2023-04-07T07:37:07;100102.31;;;9.51;53.56
8641;BME280;4358;42.100;25.222;2023-04-07T07:39:34;100101.75;;;9.60;53.86
8641;BME280;4358;42.100;25.222;2023-04-07T07:42:02;100102.34;;;9.65;52.65
8641;BME280;4358;42.100;25.222;2023-04-07T07:44:28;100103.47;;;9.61;53.76
8641;BME280;4358;42.100;25.222;2023-04-07T07:46:55;100104.41;;;9.74;54.11
8641;BME280;4358;42.100;25.222;2023-04-07T07:49:23;100109.19;;;9.83;54.32
8641;BME280;4358;42.100;25.222;2023-04-07T07:51:50;100106.53;;;9.83;53.25
8641;BME280;4358;42.100;25.222;2023-04-07T07:54:17;100114.50;;;9.97;53.48
8641;BME280;4358;42.100;25.222;2023-04-07T07:56:44;100110.13;;;9.96;52.59
8641;BME280;4358;42.100;25.222;2023-04-07T07:59:11;100100.47;;;9.95;52.78
8641;BME280;4358;42.100;25.222;2023-04-07T08:01:37;100107.69;;;9.93;52.96
8641;BME280;4358;42.100;25.222;2023-04-07T08:04:04;100102.09;;;9.98;52.17
8641;BME280;4358;42.100;25.222;2023-04-07T08:06:32;100106.19;;;10.03;50.97
8641;BME280;4358;42.100;25.222;2023-04-07T08:09:00;100102.78;;;10.30;52.27
8641;BME280;4358;42.100;25.222;2023-04-07T08:11:27;100104.09;;;10.51;51.43
8641;BME280;4358;42.100;25.222;2023-04-07T08:13:53;100103.50;;;10.60;50.28
8641;BME280;4358;42.100;25.222;2023-04-07T08:16:20;100104.97;;;10.78;51.35
8641;BME280;4358;42.100;25.222;2023-04-07T08:18:48;100106.81;;;10.90;49.30
8641;BME280;4358;42.100;25.222;2023-04-07T08:21:15;100096.28;;;11.03;50.17
8641;BME280;4358;42.100;25.222;2023-04-07T08:23:43;100088.72;;;11.10;51.13
8641;BME280;4358;42.100;25.222;2023-04-07T08:26:10;100106.66;;;11.33;50.02
8641;BME280;4358;42.100;25.222;2023-04-07T08:28:37;100090.31;;;11.39;48.43
8641;BME280;4358;42.100;25.222;2023-04-07T08:31:04;100091.28;;;11.63;49.80
8641;BME280;4358;42.100;25.222;2023-04-07T08:33:31;100091.66;;;11.84;48.15
8641;BME280;4358;42.100;25.222;2023-04-07T08:35:58;100083.31;;;11.63;49.87
8641;BME280;4358;42.100;25.222;2023-04-07T08:38:25;100080.41;;;11.80;48.57
8641;BME280;4358;42.100;25.222;2023-04-07T08:40:59;100083.78;;;11.95;47.11
8641;BME280;4358;42.100;25.222;2023-04-07T08:43:28;100076.78;;;12.19;46.92
8641;BME280;4358;42.100;25.222;2023-04-07T08:45:56;100081.81;;;12.48;45.69
8641;BME280;4358;42.100;25.222;2023-04-07T08:48:23;100082.81;;;12.34;45.68
8641;BME280;4358;42.100;25.222;2023-04-07T08:50:53;100077.47;;;12.34;46.91
8641;BME280;4358;42.100;25.222;2023-04-07T08:53:24;100077.50;;;12.21;45.42
8641;BME280;4358;42.100;25.222;2023-04-07T08:55:55;100081.53;;;12.27;46.16
8641;BME280;4358;42.100;25.222;2023-04-07T08:58:23;100083.97;;;12.30;45.41
8641;BME280;4358;42.100;25.222;2023-04-07T09:00:51;100078.19;;;12.49;45.00
8641;BME280;4358;42.100;25.222;2023-04-07T09:03:18;100066.19;;;12.67;45.13
8641;BME280;4358;42.100;25.222;2023-04-07T09:05:45;100068.03;;;12.66;46.89
8641;BME280;4358;42.100;25.222;2023-04-07T09:08:12;100068.47;;;12.84;45.91
8641;BME280;4358;42.100;25.222;2023-04-07T09:10:39;100069.03;;;13.24;44.31
8641;BME280;4358;42.100;25.222;2023-04-07T09:13:07;100070.41;;;13.65;42.09
8641;BME280;4358;42.100;25.222;2023-04-07T09:15:34;100067.25;;;13.60;40.72
8641;BME280;4358;42.100;25.222;2023-04-07T09:18:01;100063.91;;;13.34;41.73
8641;BME280;4358;42.100;25.222;2023-04-07T09:20:53;100071.72;;;13.24;40.76
8641;BME280;4358;42.100;25.222;2023-04-07T09:23:27;100067.47;;;13.22;42.07
8641;BME280;4358;42.100;25.222;2023-04-07T09:25:55;100062.53;;;13.28;41.30
8641;BME280;4358;42.100;25.222;2023-04-07T09:28:37;100066.16;;;13.27;40.97
8641;BME280;4358;42.100;25.222;2023-04-07T09:31:04;100054.94;;;13.46;41.61
8641;BME280;4358;42.100;25.222;2023-04-07T09:33:32;100059.97;;;13.73;41.93
8641;BME280;4358;42.100;25.222;2023-04-07T09:35:59;100054.44;;;13.87;40.47
8641;BME280;4358;42.100;25.222;2023-04-07T09:38:32;100060.00;;;13.95;40.78
8641;BME280;4358;42.100;25.222;2023-04-07T09:41:05;100061.22;;;14.13;40.14
8641;BME280;4358;42.100;25.222;2023-04-07T09:43:36;100061.69;;;13.85;41.42
8641;BME280;4358;42.100;25.222;2023-04-07T09:46:11;100059.44;;;13.56;41.08
8641;BME280;4358;42.100;25.222;2023-04-07T09:48:39;100060.72;;;13.75;42.09
8641;BME280;4358;42.100;25.222;2023-04-07T09:51:08;100057.81;;;14.00;41.77
8641;BME280;4358;42.100;25.222;2023-04-07T09:53:43;100043.63;;;14.22;41.63
8641;BME280;4358;42.100;25.222;2023-04-07T09:56:11;100059.53;;;14.23;41.66
8641;BME280;4358;42.100;25.222;2023-04-07T09:58:39;100055.28;;;14.54;41.46
8641;BME280;4358;42.100;25.222;2023-04-07T10:01:06;100056.16;;;14.44;41.80
8641;BME280;4358;42.100;25.222;2023-04-07T10:03:34;100054.66;;;14.51;40.27
8641;BME280;4358;42.100;25.222;2023-04-07T10:06:01;100048.59;;;14.60;40.32
8641;BME280;4358;42.100;25.222;2023-04-07T10:08:30;100057.75;;;14.89;40.90
8641;BME280;4358;42.100;25.222;2023-04-07T10:10:58;100048.09;;;15.30;39.93
8641;BME280;4358;42.100;25.222;2023-04-07T10:13:27;100048.66;;;15.65;39.25
8641;BME280;4358;42.100;25.222;2023-04-07T10:15:56;100038.00;;;15.95;38.27
8641;BME280;4358;42.100;25.222;2023-04-07T10:18:27;100047.81;;;16.16;37.26
8641;BME280;4358;42.100;25.222;2023-04-07T10:20:55;100037.69;;;16.29;37.37
8641;BME280;4358;42.100;25.222;2023-04-07T10:23:26;100037.63;;;16.09;37.19
8641;BME280;4358;42.100;25.222;2023-04-07T10:25:55;100030.41;;;15.70;38.07
8641;BME280;4358;42.100;25.222;2023-04-07T10:28:25;100027.41;;;15.94;38.31
8641;BME280;4358;42.100;25.222;2023-04-07T10:30:53;100028.00;;;15.97;37.45
8641;BME280;4358;42.100;25.222;2023-04-07T10:33:47;100009.94;;;15.90;39.12
8641;BME280;4358;42.100;25.222;2023-04-07T10:36:16;100032.28;;;15.79;39.15
8641;BME280;4358;42.100;25.222;2023-04-07T10:41:43;100024.13;;;15.60;40.08
8641;BME280;4358;42.100;25.222;2023-04-07T10:44:44;100023.09;;;15.72;38.25
8641;BME280;4358;42.100;25.222;2023-04-07T10:47:13;100025.97;;;16.10;38.14
8641;BME280;4358;42.100;25.222;2023-04-07T10:50:17;100019.44;;;16.03;39.99
8641;BME280;4358;42.100;25.222;2023-04-07T10:52:45;100024.34;;;15.98;39.69
8641;BME280;4358;42.100;25.222;2023-04-07T10:55:35;100025.91;;;16.01;39.71
8641;BME280;4358;42.100;25.222;2023-04-07T10:58:19;100022.19;;;16.23;38.96
8641;BME280;4358;42.100;25.222;2023-04-07T11:01:15;100024.75;;;16.64;38.52
8641;BME280;4358;42.100;25.222;2023-04-07T11:03:58;100024.03;;;16.72;38.36
8641;BME280;4358;42.100;25.222;2023-04-07T11:06:27;100018.72;;;17.01;37.78
8641;BME280;4358;42.100;25.222;2023-04-07T11:08:54;100020.97;;;16.96;39.97
8641;BME280;4358;42.100;25.222;2023-04-07T11:11:40;100022.06;;;17.22;39.08
8641;BME280;4358;42.100;25.222;2023-04-07T11:14:07;100018.66;;;17.58;36.95
8641;BME280;4358;42.100;25.222;2023-04-07T11:16:41;100014.72;;;17.62;36.32
8641;BME280;4358;42.100;25.222;2023-04-07T11:19:10;100022.38;;;17.09;36.90
8641;BME280;4358;42.100;25.222;2023-04-07T11:21:38;100018.84;;;17.18;38.01
8641;BME280;4358;42.100;25.222;2023-04-07T11:24:05;100027.44;;;17.41;37.14
8641;BME280;4358;42.100;25.222;2023-04-07T11:26:39;100014.72;;;17.62;37.05
8641;BME280;4358;42.100;25.222;2023-04-07T11:29:06;100014.63;;;17.91;36.65
8641;BME280;4358;42.100;25.222;2023-04-07T11:31:33;100007.31;;;17.84;37.09
8641;BME280;4358;42.100;25.222;2023-04-07T11:34:01;100009.13;;;17.93;36.32
8641;BME280;4358;42.100;25.222;2023-04-07T11:36:30;100007.31;;;17.84;36.09
8641;BME280;4358;42.100;25.222;2023-04-07T11:39:00;99996.00;;;17.90;36.57
8641;BME280;4358;42.100;25.222;2023-04-07T11:41:29;99997.81;;;17.14;37.28
8641;BME280;4358;42.100;25.222;2023-04-07T11:44:04;99998.94;;;16.92;38.88
8641;BME280;4358;42.100;25.222;2023-04-07T11:46:31;100000.22;;;16.38;39.38
8641;BME280;4358;42.100;25.222;2023-04-07T11:49:08;99998.03;;;15.73;39.63
8641;BME280;4358;42.100;25.222;2023-04-07T11:51:35;99992.34;;;15.66;40.56
8641;BME280;4358;42.100;25.222;2023-04-07T11:54:04;100000.97;;;15.70;40.24
8641;BME280;4358;42.100;25.222;2023-04-07T11:56:41;99989.03;;;15.74;40.52
8641;BME280;4358;42.100;25.222;2023-04-07T11:59:17;99993.47;;;15.64;41.61
8641;BME280;4358;42.100;25.222;2023-04-07T12:01:45;99995.91;;;16.07;40.41
8641;BME280;4358;42.100;25.222;2023-04-07T12:04:12;99996.53;;;16.20;41.09
8641;BME280;4358;42.100;25.222;2023-04-07T12:06:40;99982.34;;;16.39;39.76
8641;BME280;4358;42.100;25.222;2023-04-07T12:09:25;99984.63;;;16.03;40.22
8641;BME280;4358;42.100;25.222;2023-04-07T12:11:53;99978.19;;;16.16;41.01
8641;BME280;4358;42.100;25.222;2023-04-07T12:14:20;99984.22;;;16.48;39.98
8641;BME280;4358;42.100;25.222;2023-04-07T12:16:46;99980.47;;;16.30;40.38
8641;BME280;4358;42.100;25.222;2023-04-07T12:19:13;99990.16;;;16.12;40.79
8641;BME280;4358;42.100;25.222;2023-04-07T12:21:40;99988.09;;;16.25;40.30
8641;BME280;4358;42.100;25.222;2023-04-07T12:24:09;99984.31;;;15.97;40.23
8641;BME280;4358;42.100;25.222;2023-04-07T12:26:36;99981.69;;;16.06;40.84
8641;BME280;4358;42.100;25.222;2023-04-07T12:29:03;99977.31;;;16.05;41.12
8641;BME280;4358;42.100;25.222;2023-04-07T12:31:30;99980.66;;;15.98;41.39
8641;BME280;4358;42.100;25.222;2023-04-07T12:33:57;99976.25;;;15.87;41.35
8641;BME280;4358;42.100;25.222;2023-04-07T12:36:24;99975.16;;;15.59;41.26
8641;BME280;4358;42.100;25.222;2023-04-07T12:38:52;99968.88;;;15.70;41.66
8641;BME280;4358;42.100;25.222;2023-04-07T12:41:20;99975.19;;;15.69;42.40
8641;BME280;4358;42.100;25.222;2023-04-07T12:43:47;99975.72;;;15.63;41.74
8641;BME280;4358;42.100;25.222;2023-04-07T12:46:14;99961.09;;;15.67;42.05
8641;BME280;4358;42.100;25.222;2023-04-07T12:48:41;99965.03;;;15.63;42.91
8641;BME280;4358;42.100;25.222;2023-04-07T12:51:07;99969.69;;;15.50;42.71
8641;BME280;4358;42.100;25.222;2023-04-07T12:53:34;99970.50;;;15.41;42.88
8641;BME280;4358;42.100;25.222;2023-04-07T12:56:02;99973.16;;;15.41;43.57
8641;BME280;4358;42.100;25.222;2023-04-07T12:58:30;99972.59;;;15.58;43.15
8641;BME280;4358;42.100;25.222;2023-04-07T13:00:57;99964.94;;;15.74;42.96
8641;BME280;4358;42.100;25.222;2023-04-07T13:03:25;99963.84;;;15.56;43.12
8641;BME280;4358;42.100;25.222;2023-04-07T13:05:52;99963.31;;;15.20;44.16
8641;BME280;4358;42.100;25.222;2023-04-07T13:08:19;99956.56;;;15.16;44.82
8641;BME280;4358;42.100;25.222;2023-04-07T13:10:46;99962.13;;;15.13;44.38
8641;BME280;4358;42.100;25.222;2023-04-07T13:13:13;99956.56;;;15.16;44.27
8641;BME280;4358;42.100;25.222;2023-04-07T13:15:41;99953.53;;;15.10;43.71
8641;BME280;4358;42.100;25.222;2023-04-07T13:18:08;99955.44;;;15.19;44.18
8641;BME280;4358;42.100;25.222;2023-04-07T13:20:35;99950.75;;;15.32;44.76
8641;BME280;4358;42.100;25.222;2023-04-07T13:23:02;99950.25;;;15.17;44.93